Time;durP1;ratioP1;P1;durP2;ratioP2;P2;SDS_P1;SDS_P2;PMS_P1;PMS_P2;Temp;Humidity;BMP_temperature;BMP_pressure;BME280_temperature;BME280_humidity;BME280_pressure;Samples;Min_cycle;Max_cycle;Signal;HPM_P1;HPM_P2
2022/09/19 00:01:24;;;;;;;0.70;0.50;;;21.70;45.50;;;;;;5049833;28;20542;-9
2022/09/19 00:04:02;;;;;;;0.60;0.60;;;21.80;45.50;;;;;;5049618;28;20087;-9
2022/09/19 00:06:30;;;;;;;0.50;0.50;;;21.70;45.40;;;;;;5049147;28;20057;-9
2022/09/19 00:08:57;;;;;;;1.17;0.60;;;21.70;45.50;;;;;;5049353;28;20060;-9
2022/09/19 00:11:25;;;;;;;0.80;0.70;;;21.70;45.40;;;;;;5049373;28;20128;-9
2022/09/19 00:13:54;;;;;;;0.70;0.55;;;21.70;45.40;;;;;;5049829;28;20056;-9
2022/09/19 00:16:32;;;;;;;0.60;0.60;;;21.70;45.40;;;;;;5049538;28;20136;-9
2022/09/19 00:19:00;;;;;;;0.68;0.55;;;21.70;45.50;;;;;;5049119;28;20059;-9
2022/09/19 00:21:34;;;;;;;0.93;0.80;;;21.70;45.50;;;;;;5049116;28;20110;-9
2022/09/19 00:26:47;;;;;;;0.77;0.60;;;21.70;45.50;;;;;;5049234;28;20132;-9
2022/09/19 00:29:17;;;;;;;0.70;0.68;;;21.70;45.40;;;;;;5048903;28;20092;-9
2022/09/19 00:31:44;;;;;;;0.97;0.40;;;21.80;45.50;;;;;;5049450;28;20482;-9
2022/09/19 00:34:11;;;;;;;0.60;0.60;;;21.80;45.50;;;;;;5031093;28;20502;-9
2022/09/19 00:36:38;;;;;;;0.82;0.65;;;21.80;45.50;;;;;;5048869;28;20054;-9
2022/09/19 00:39:05;;;;;;;1.20;0.45;;;21.80;45.50;;;;;;5049253;28;20482;-9
2022/09/19 00:41:31;;;;;;;0.52;0.52;;;21.70;45.50;;;;;;5049059;28;20057;-9
2022/09/19 00:44:02;;;;;;;0.55;0.55;;;21.70;45.40;;;;;;5029182;28;20054;-9
2022/09/19 00:46:30;;;;;;;1.02;0.70;;;21.80;45.50;;;;;;5048815;28;20053;-9
2022/09/19 00:49:09;;;;;;;1.08;0.70;;;21.80;45.50;;;;;;5052049;28;20136;-9
2022/09/19 00:51:40;;;;;;;0.68;0.68;;;21.70;45.50;;;;;;5033948;28;20455;-9
2022/09/19 00:54:13;;;;;;;1.25;0.70;;;21.70;45.50;;;;;;5052182;28;20053;-9
2022/09/19 00:56:47;;;;;;;0.60;0.60;;;21.70;45.50;;;;;;5051865;28;20045;-9
2022/09/19 00:59:14;;;;;;;1.02;0.70;;;21.70;45.50;;;;;;5052252;28;20174;-9
2022/09/19 01:01:41;;;;;;;0.85;0.65;;;21.70;45.50;;;;;;5051986;28;20143;-9
2022/09/19 01:04:22;;;;;;;0.57;0.57;;;21.70;45.50;;;;;;5033711;28;20065;-9
2022/09/19 01:06:51;;;;;;;0.75;0.60;;;21.70;45.40;;;;;;5051560;28;20140;-9
2022/09/19 01:09:36;;;;;;;0.55;0.55;;;21.70;45.40;;;;;;5051510;28;20089;-9
2022/09/19 01:12:08;;;;;;;1.02;0.63;;;21.70;45.40;;;;;;5051624;28;20151;-9
2022/09/19 01:14:53;;;;;;;0.98;0.60;;;21.70;45.40;;;;;;5051976;28;20102;-9
2022/09/19 01:17:23;;;;;;;1.08;0.60;;;21.70;45.40;;;;;;5033559;28;20048;-9
2022/09/19 01:20:01;;;;;;;0.50;0.50;;;21.80;45.50;;;;;;5051298;28;20084;-9
2022/09/19 01:22:43;;;;;;;0.55;0.55;;;21.70;45.40;;;;;;5050082;28;20060;-9
2022/09/19 01:25:38;;;;;;;1.58;0.88;;;21.70;45.50;;;;;;5050450;28;20059;-9
2022/09/19 01:28:28;;;;;;;0.80;0.70;;;21.70;45.50;;;;;;5033240;28;20452;-9
2022/09/19 01:31:19;;;;;;;0.68;0.57;;;21.70;45.50;;;;;;5017476;28;20049;-9
2022/09/19 01:34:05;;;;;;;0.60;0.60;;;21.70;45.50;;;;;;5033584;28;20482;-9
2022/09/19 01:36:36;;;;;;;0.70;0.43;;;21.70;45.50;;;;;;5033448;28;20378;-9
2022/09/19 01:39:04;;;;;;;0.85;0.73;;;21.70;45.50;;;;;;5033561;28;20389;-9
2022/09/19 01:41:35;;;;;;;0.82;0.60;;;21.70;45.50;;;;;;5033452;28;20501;-9
2022/09/19 01:44:08;;;;;;;1.08;0.60;;;21.70;45.50;;;;;;5033365;28;20044;-9
2022/09/19 01:46:43;;;;;;;0.73;0.57;;;21.70;45.50;;;;;;5033923;28;20102;-9
2022/09/19 01:49:21;;;;;;;0.50;0.50;;;21.70;45.50;;;;;;5033293;28;20048;-9
2022/09/19 01:51:53;;;;;;;0.73;0.70;;;21.70;45.50;;;;;;5050479;28;20060;-9
2022/09/19 01:54:34;;;;;;;0.68;0.57;;;21.70;45.50;;;;;;5031586;28;20053;-9
2022/09/19 01:57:42;;;;;;;1.50;0.80;;;21.70;45.50;;;;;;5031819;28;20049;-9
2022/09/19 02:00:18;;;;;;;0.73;0.50;;;21.70;45.50;;;;;;5032332;28;20087;-9
2022/09/19 02:03:23;;;;;;;0.50;0.50;;;21.70;45.50;;;;;;5032225;28;20446;-9
2022/09/19 02:06:18;;;;;;;0.55;0.50;;;21.70;45.50;;;;;;5033353;28;20057;-9
2022/09/19 02:08:51;;;;;;;0.55;0.55;;;21.70;45.50;;;;;;5050992;28;20044;-9
2022/09/19 02:11:31;;;;;;;1.42;0.73;;;21.70;45.50;;;;;;5032544;28;20067;-9
2022/09/19 02:14:10;;;;;;;;;;;21.70;45.50;;;;;;5051354;28;20057;-9
2022/09/19 02:16:47;;;;;;;1.15;0.60;;;21.70;45.50;;;;;;5051176;28;19987;-9
2022/09/19 02:19:16;;;;;;;1.02;0.70;;;21.70;45.50;;;;;;5033256;28;20131;-9
2022/09/19 02:21:48;;;;;;;0.57;0.52;;;21.70;45.50;;;;;;5033066;28;20079;-9
2022/09/19 02:24:16;;;;;;;;;;;21.70;45.50;;;;;;5033904;28;20048;-9
2022/09/19 02:26:44;;;;;;;0.50;0.50;;;21.70;45.50;;;;;;5050642;28;20362;-9
2022/09/19 02:29:14;;;;;;;0.65;0.60;;;21.70;45.50;;;;;;5032826;28;20056;-9
2022/09/19 02:31:40;;;;;;;0.98;0.50;;;21.70;45.50;;;;;;5029716;28;20054;-9
2022/09/19 02:34:08;;;;;;;1.02;0.60;;;21.70;45.50;;;;;;5049492;28;20490;-9
2022/09/19 02:36:36;;;;;;;0.60;0.60;;;21.70;45.50;;;;;;5032654;28;20485;-9
2022/09/19 02:39:09;;;;;;;0.68;0.50;;;21.70;45.50;;;;;;5049164;28;20534;-9
2022/09/19 02:42:16;;;;;;;0.40;0.40;;;21.70;45.50;;;;;;4979277;28;20062;-9
2022/09/19 02:45:17;;;;;;;0.90;0.55;;;21.70;45.50;;;;;;5032624;28;20490;-9
2022/09/19 02:48:21;;;;;;;0.43;0.40;;;21.70;45.50;;;;;;5031865;28;20057;-9
2022/09/19 02:50:52;;;;;;;0.55;0.50;;;21.70;45.50;;;;;;5034489;28;20486;-9
2022/09/19 02:53:28;;;;;;;0.65;0.55;;;21.70;45.50;;;;;;5032535;28;20049;-9
2022/09/19 02:56:00;;;;;;;0.50;0.43;;;21.70;45.50;;;;;;5032735;28;20049;-9
2022/09/19 02:58:30;;;;;;;0.85;0.60;;;21.70;45.50;;;;;;5032617;28;20410;-9
2022/09/19 03:01:04;;;;;;;0.95;0.63;;;21.70;45.50;;;;;;5050300;28;20045;-9
2022/09/19 03:06:32;;;;;;;0.47;0.40;;;21.70;45.50;;;;;;5049039;28;20089;-9
2022/09/19 03:08:59;;;;;;;0.60;0.60;;;21.70;45.50;;;;;;5049590;28;20049;-9
2022/09/19 03:11:30;;;;;;;0.60;0.60;;;21.70;45.50;;;;;;5032205;28;20057;-9
2022/09/19 03:13:59;;;;;;;;;;;21.70;45.50;;;;;;5050841;28;20482;-9
2022/09/19 03:16:34;;;;;;;0.55;0.55;;;21.70;45.50;;;;;;5031638;28;19962;-9
2022/09/19 03:19:04;;;;;;;0.70;0.50;;;21.70;45.50;;;;;;5049117;28;20109;-9
2022/09/19 03:21:31;;;;;;;0.85;0.65;;;21.70;45.50;;;;;;5032125;28;20053;-9
2022/09/19 03:23:58;;;;;;;0.50;0.50;;;21.70;45.50;;;;;;5048919;28;20110;-9
2022/09/19 03:26:30;;;;;;;0.70;0.70;;;21.70;45.50;;;;;;5048489;28;20049;-10
2022/09/19 03:28:59;;;;;;;0.63;0.50;;;21.70;45.40;;;;;;5031648;28;20064;-10
2022/09/19 03:31:32;;;;;;;0.55;0.50;;;21.60;46.00;;;;;;5050044;28;20045;-10
2022/09/19 03:34:02;;;;;;;0.57;0.57;;;21.60;45.50;;;;;;5031998;28;20049;-9
2022/09/19 03:36:30;;;;;;;0.60;0.50;;;21.70;45.60;;;;;;5031819;28;20045;-9
2022/09/19 03:39:01;;;;;;;0.88;0.50;;;21.60;45.60;;;;;;5048488;28;20148;-9
2022/09/19 03:41:30;;;;;;;0.85;0.60;;;21.60;45.60;;;;;;5032182;28;20056;-9
2022/09/19 03:44:00;;;;;;;0.60;0.50;;;21.70;45.50;;;;;;5032281;28;20076;-9
2022/09/19 03:46:26;;;;;;;0.73;0.50;;;21.70;45.50;;;;;;5032371;28;20538;-9
2022/09/19 03:48:52;;;;;;;1.00;0.60;;;21.70;45.50;;;;;;5030688;28;20049;-10
2022/09/19 03:51:18;;;;;;;0.45;0.45;;;21.70;45.50;;;;;;5049822;28;20137;-9
2022/09/19 03:53:44;;;;;;;0.57;0.57;;;21.70;45.40;;;;;;5031813;28;20067;-10
2022/09/19 03:56:11;;;;;;;0.50;0.50;;;21.70;45.40;;;;;;5032209;28;20375;-9
2022/09/19 03:58:38;;;;;;;0.77;0.60;;;21.70;45.40;;;;;;5049897;28;20394;-10
2022/09/19 04:01:06;;;;;;;1.35;0.60;;;21.70;45.40;;;;;;5029853;28;20057;-9
2022/09/19 04:03:34;;;;;;;0.80;0.73;;;21.70;45.40;;;;;;5032069;28;20049;-10
2022/09/19 04:06:00;;;;;;;1.15;0.60;;;21.70;45.50;;;;;;5031926;28;20081;-10
2022/09/19 04:08:27;;;;;;;1.15;0.60;;;21.70;45.50;;;;;;5031327;28;20112;-10
2022/09/19 04:10:53;;;;;;;0.40;0.40;;;21.70;45.50;;;;;;5031425;28;20048;-9
2022/09/19 04:13:21;;;;;;;0.50;0.50;;;21.70;45.40;;;;;;5049273;28;20053;-9
2022/09/19 04:15:48;;;;;;;0.70;0.60;;;21.70;45.50;;;;;;5031958;28;20068;-9
2022/09/19 04:18:15;;;;;;;0.60;0.60;;;21.70;45.50;;;;;;5031897;28;20501;-10
2022/09/19 04:20:42;;;;;;;0.50;0.50;;;21.70;45.50;;;;;;5049423;28;20135;-10
2022/09/19 04:23:27;;;;;;;0.50;0.50;;;21.70;45.50;;;;;;5049529;28;20101;-9
2022/09/19 04:26:11;;;;;;;0.63;0.60;;;21.70;45.50;;;;;;5034608;28;20060;-9
2022/09/19 04:28:41;;;;;;;0.80;0.50;;;21.70;45.50;;;;;;5034136;28;20049;-10
2022/09/19 04:31:09;;;;;;;0.70;0.63;;;21.70;45.50;;;;;;5034544;28;20074;-9
2022/09/19 04:33:36;;;;;;;0.70;0.50;;;21.70;45.50;;;;;;5033900;28;20494;-9
2022/09/19 04:36:05;;;;;;;0.50;0.40;;;21.60;45.40;;;;;;5034440;28;20463;-9
2022/09/19 04:38:32;;;;;;;0.43;0.40;;;21.70;45.50;;;;;;5034260;28;20052;-9
2022/09/19 04:40:59;;;;;;;0.50;0.50;;;21.60;45.40;;;;;;5034386;28;20077;-10
2022/09/19 04:43:28;;;;;;;0.40;0.40;;;21.70;45.50;;;;;;5034337;28;20074;-9
2022/09/19 04:46:06;;;;;;;0.45;0.45;;;21.70;45.50;;;;;;5034529;28;20513;-9
2022/09/19 04:48:44;;;;;;;0.73;0.55;;;21.70;45.50;;;;;;5051165;28;20053;-10
2022/09/19 04:51:11;;;;;;;1.13;0.60;;;21.60;45.50;;;;;;5034418;28;20053;-9
2022/09/19 04:53:38;;;;;;;1.08;0.63;;;21.70;45.50;;;;;;5034226;28;20045;-10
2022/09/19 04:56:04;;;;;;;1.00;0.70;;;21.60;45.40;;;;;;5050523;28;20084;-9
2022/09/19 04:58:31;;;;;;;0.52;0.52;;;21.70;45.50;;;;;;5050002;28;20045;-10
2022/09/19 05:00:58;;;;;;;0.50;0.50;;;21.60;45.40;;;;;;5033996;28;20064;-9
2022/09/19 05:03:25;;;;;;;1.08;0.80;;;21.70;45.50;;;;;;5051703;28;20052;-9
2022/09/19 05:05:53;;;;;;;0.40;0.40;;;21.70;45.40;;;;;;5050595;28;20387;-10
2022/09/19 05:08:28;;;;;;;0.50;0.50;;;21.70;45.40;;;;;;5034034;28;20105;-9
2022/09/19 05:10:59;;;;;;;0.50;0.50;;;21.70;45.40;;;;;;5033668;28;20056;-9
2022/09/19 05:13:30;;;;;;;0.50;0.50;;;21.70;45.40;;;;;;5033817;28;20209;-10
2022/09/19 05:15:57;;;;;;;0.55;0.50;;;21.70;45.40;;;;;;5033656;28;20399;-9
2022/09/19 05:18:24;;;;;;;0.52;0.52;;;21.70;45.50;;;;;;5032648;28;20134;-9
2022/09/19 05:20:52;;;;;;;0.52;0.47;;;21.70;45.50;;;;;;5033397;28;20053;-10
2022/09/19 05:23:24;;;;;;;0.50;0.50;;;21.60;45.40;;;;;;5032407;28;20056;-9
2022/09/19 05:25:53;;;;;;;0.40;0.40;;;21.70;45.40;;;;;;5032197;28;20054;-9
2022/09/19 05:28:26;;;;;;;0.82;0.63;;;21.60;45.50;;;;;;5031837;28;20088;-10
2022/09/19 05:30:55;;;;;;;0.73;0.70;;;21.60;45.50;;;;;;5050016;28;20056;-9
2022/09/19 05:33:26;;;;;;;0.35;0.32;;;21.60;45.60;;;;;;5032558;28;20053;-9
2022/09/19 05:35:55;;;;;;;0.63;0.50;;;21.60;45.70;;;;;;5033643;28;20056;-9
2022/09/19 05:38:34;;;;;;;;;;;21.50;45.60;;;;;;5034041;28;20059;-10
2022/09/19 05:41:18;;;;;;;0.40;0.40;;;21.60;45.70;;;;;;5057416;28;19942;-10
2022/09/19 05:43:50;;;;;;;0.60;0.60;;;21.60;45.70;;;;;;5051755;28;20049;-9
2022/09/19 05:46:16;;;;;;;0.77;0.77;;;21.60;45.70;;;;;;5051091;28;20055;-9
2022/09/19 05:48:47;;;;;;;0.40;0.40;;;21.60;45.70;;;;;;5049453;28;20071;-10
2022/09/19 05:51:13;;;;;;;0.50;0.50;;;21.50;45.70;;;;;;5033146;28;20063;-10
2022/09/19 05:53:56;;;;;;;0.85;0.80;;;21.60;45.70;;;;;;5049749;28;20057;-10
2022/09/19 05:56:32;;;;;;;0.50;0.50;;;21.60;45.70;;;;;;5033694;28;20052;-10
2022/09/19 05:59:00;;;;;;;0.47;0.47;;;21.60;45.70;;;;;;5050776;28;20077;-10
2022/09/19 06:01:27;;;;;;;0.88;0.50;;;21.60;45.60;;;;;;5050001;28;20104;-11
2022/09/19 06:03:53;;;;;;;0.57;0.57;;;21.60;45.50;;;;;;5049660;28;20049;-10
2022/09/19 06:06:20;;;;;;;0.50;0.50;;;21.60;45.50;;;;;;5049405;28;20056;-10
2022/09/19 06:08:55;;;;;;;0.75;0.68;;;21.70;45.50;;;;;;5033297;28;20413;-11
2022/09/19 06:11:21;;;;;;;0.68;0.65;;;21.70;45.40;;;;;;5032916;28;20104;-10
2022/09/19 06:16:32;;;;;;;0.55;0.50;;;21.70;45.30;;;;;;5049276;28;20073;-11
2022/09/19 06:19:18;;;;;;;0.90;0.80;;;21.70;45.30;;;;;;5053813;28;20482;-11
2022/09/19 06:21:51;;;;;;;0.45;0.45;;;21.70;45.30;;;;;;5048850;28;20502;-11
2022/09/19 06:24:16;;;;;;;0.50;0.50;;;21.70;45.30;;;;;;5032313;28;20056;-10
2022/09/19 06:26:42;;;;;;;0.85;0.50;;;21.80;45.30;;;;;;5048694;28;20045;-10
2022/09/19 06:29:08;;;;;;;0.57;0.57;;;21.90;45.00;;;;;;5048645;28;20052;-10
2022/09/19 06:31:35;;;;;;;0.73;0.60;;;22.10;44.80;;;;;;5032111;28;20375;-10
2022/09/19 06:34:17;;;;;;;1.73;0.50;;;22.20;44.60;;;;;;5050376;28;20156;-10
2022/09/19 06:36:44;;;;;;;0.57;0.55;;;22.20;44.40;;;;;;5048800;28;20137;-11
2022/09/19 06:39:10;;;;;;;0.63;0.55;;;22.30;44.40;;;;;;5032200;28;20057;-10
2022/09/19 06:41:40;;;;;;;0.45;0.43;;;22.30;44.30;;;;;;5029223;28;20054;-11
2022/09/19 06:44:26;;;;;;;0.70;0.60;;;22.40;44.30;;;;;;5009112;28;20497;-10
2022/09/19 06:47:07;;;;;;;0.82;0.65;;;22.50;44.10;;;;;;5032066;28;20486;-11
2022/09/19 06:49:53;;;;;;;1.02;0.70;;;22.50;43.90;;;;;;5032137;28;20053;-10
2022/09/19 06:52:24;;;;;;;0.70;0.70;;;22.60;43.80;;;;;;5049352;28;20048;-10
2022/09/19 06:54:51;;;;;;;0.80;0.60;;;22.60;43.70;;;;;;5032552;28;20439;-10
2022/09/19 06:57:16;;;;;;;1.95;0.65;;;22.70;43.60;;;;;;5031889;28;20048;-10
2022/09/19 06:59:43;;;;;;;1.58;0.70;;;22.70;43.50;;;;;;5118926;27;20398;-10
2022/09/19 07:02:10;;;;;;;0.95;0.50;;;22.80;43.30;;;;;;5048618;28;20045;-10
2022/09/19 07:04:36;;;;;;;0.60;0.60;;;22.90;43.30;;;;;;5031072;28;20072;-11
2022/09/19 07:07:08;;;;;;;0.95;0.70;;;22.90;43.20;;;;;;5031694;28;20073;-11
2022/09/19 07:09:39;;;;;;;;;;;23.00;43.00;;;;;;5049503;28;20049;-11
2022/09/19 07:12:07;;;;;;;0.60;0.60;;;23.10;43.00;;;;;;5048400;28;20345;-10
2022/09/19 07:14:34;;;;;;;1.42;0.68;;;23.20;42.80;;;;;;5031897;28;20402;-10
2022/09/19 07:17:01;;;;;;;1.65;0.50;;;23.20;42.70;;;;;;5030397;28;20064;-11
2022/09/19 07:19:27;;;;;;;0.75;0.50;;;23.20;42.60;;;;;;5048431;28;20045;-10
2022/09/19 07:22:16;;;;;;;1.42;0.80;;;23.20;42.60;;;;;;5048740;28;20041;-10
2022/09/19 07:25:00;;;;;;;3.78;0.60;;;23.20;42.80;;;;;;5049953;28;20393;-10
2022/09/19 07:27:33;;;;;;;1.02;0.47;;;23.10;42.90;;;;;;5032151;28;20440;-11
2022/09/19 07:29:59;;;;;;;2.15;0.70;;;23.20;43.00;;;;;;5032073;28;20049;-11
2022/09/19 07:32:27;;;;;;;1.88;0.60;;;23.20;43.00;;;;;;5048464;28;20060;-10
2022/09/19 07:34:53;;;;;;;0.75;0.68;;;23.20;42.90;;;;;;5031682;28;20064;-10
2022/09/19 07:37:19;;;;;;;2.33;0.70;;;23.20;42.90;;;;;;5048514;28;20049;-11
2022/09/19 07:39:52;;;;;;;1.80;0.60;;;23.20;42.90;;;;;;5030712;28;20049;-11
2022/09/19 07:42:29;;;;;;;0.93;0.70;;;23.10;43.10;;;;;;5031753;28;20135;-11
2022/09/19 07:45:27;;;;;;;1.15;0.70;;;23.10;43.20;;;;;;5016149;28;20060;-11
2022/09/19 07:48:11;;;;;;;;;;;23.10;43.20;;;;;;5031872;28;20048;-11
2022/09/19 07:50:57;;;;;;;2.15;0.80;;;23.10;43.10;;;;;;5048781;28;20590;-11
2022/09/19 07:53:31;;;;;;;1.85;0.70;;;23.20;43.00;;;;;;5048425;28;20461;-11
2022/09/19 07:55:57;;;;;;;1.38;0.80;;;23.10;43.00;;;;;;5031016;28;20135;-12
2022/09/19 07:58:26;;;;;;;1.27;0.98;;;23.10;43.20;;;;;;5031995;28;20072;-11
2022/09/19 08:01:02;;;;;;;2.47;1.00;;;23.10;43.20;;;;;;5031746;28;20130;-11
2022/09/19 08:03:47;;;;;;;2.50;0.70;;;23.10;43.20;;;;;;5049715;28;20450;-11
2022/09/19 08:06:15;;;;;;;0.75;0.65;;;23.10;43.30;;;;;;5030241;28;20348;-12
2022/09/19 08:08:42;;;;;;;1.00;0.75;;;23.10;43.40;;;;;;5031091;28;20563;-11
2022/09/19 08:11:43;;;;;;;2.20;0.73;;;23.00;43.50;;;;;;5048992;28;20066;-11
2022/09/19 08:14:09;;;;;;;1.27;0.85;;;23.00;43.40;;;;;;5031545;28;20550;-11
2022/09/19 08:16:37;;;;;;;1.88;1.05;;;23.00;43.40;;;;;;5047496;28;20152;-11
2022/09/19 08:19:04;;;;;;;0.93;0.73;;;23.00;43.30;;;;;;5117637;27;20088;-11
2022/09/19 08:21:31;;;;;;;0.98;0.77;;;22.90;43.50;;;;;;5031571;28;20070;-11
2022/09/19 08:23:56;;;;;;;1.50;0.80;;;22.80;43.70;;;;;;5031069;28;20524;-11
2022/09/19 08:26:24;;;;;;;0.77;0.75;;;22.70;43.70;;;;;;5030781;28;20080;-12
2022/09/19 08:28:51;;;;;;;0.95;0.70;;;22.80;43.80;;;;;;5048973;28;20098;-12
2022/09/19 08:31:17;;;;;;;0.85;0.73;;;22.80;43.80;;;;;;5030897;28;20147;-11
2022/09/19 08:33:47;;;;;;;2.53;0.70;;;22.70;43.90;;;;;;5047472;28;20078;-11
2022/09/19 08:36:14;;;;;;;0.98;0.63;;;22.60;44.00;;;;;;5031303;28;20049;-11
2022/09/19 08:38:40;;;;;;;1.27;0.82;;;22.60;44.00;;;;;;5030915;28;20101;-11
2022/09/19 08:41:44;;;;;;;1.10;0.73;;;22.60;44.10;;;;;;5047937;28;20101;-11
2022/09/19 08:44:48;;;;;;;2.45;0.80;;;22.60;44.10;;;;;;5030829;28;20060;-11
2022/09/19 08:47:19;;;;;;;3.83;0.88;;;22.60;44.20;;;;;;5030625;28;20045;-11
2022/09/19 08:49:59;;;;;;;1.95;0.90;;;22.60;44.30;;;;;;5030754;28;20097;-11
2022/09/19 08:52:28;;;;;;;1.98;0.88;;;22.60;44.30;;;;;;5030654;28;20490;-11
2022/09/19 08:54:56;;;;;;;1.80;0.80;;;22.50;44.40;;;;;;5047179;28;20083;-11
2022/09/19 08:57:38;;;;;;;1.58;0.80;;;22.50;44.80;;;;;;5030541;28;20500;-11
2022/09/19 09:00:20;;;;;;;0.90;0.90;;;22.50;44.60;;;;;;5047086;28;20088;-10
2022/09/19 09:02:51;;;;;;;1.95;1.08;;;22.50;44.70;;;;;;5030244;28;20053;-10
2022/09/19 09:05:36;;;;;;;1.33;0.90;;;22.50;44.70;;;;;;5045890;28;20056;-10
2022/09/19 09:08:29;;;;;;;2.22;0.80;;;22.50;44.80;;;;;;5030555;28;20080;-10
2022/09/19 09:11:39;;;;;;;3.50;1.13;;;22.40;44.70;;;;;;5032705;28;20444;-10
2022/09/19 09:14:25;;;;;;;2.03;1.05;;;22.50;44.80;;;;;;5049888;28;20113;-10
2022/09/19 09:17:20;;;;;;;2.92;0.88;;;22.40;44.80;;;;;;5033905;28;20482;-10
2022/09/19 09:20:28;;;;;;;1.98;1.20;;;22.50;44.80;;;;;;5051328;28;20045;-10
2022/09/19 09:23:17;;;;;;;1.40;0.88;;;22.40;44.80;;;;;;5033420;28;20049;-10
2022/09/19 09:26:00;;;;;;;2.35;1.10;;;22.50;44.80;;;;;;5033506;28;20548;-10
2022/09/19 09:28:38;;;;;;;2.40;0.93;;;22.40;44.70;;;;;;5031241;28;20090;-11
2022/09/19 09:31:34;;;;;;;1.42;1.00;;;22.50;44.70;;;;;;5050196;28;20479;-10
2022/09/19 09:34:30;;;;;;;2.28;0.90;;;22.50;44.70;;;;;;5033565;28;20487;-10
2022/09/19 09:37:04;;;;;;;3.63;1.30;;;22.50;44.60;;;;;;5051311;28;20045;-10
2022/09/19 09:39:59;;;;;;;2.00;1.02;;;22.50;44.70;;;;;;5031279;28;20081;-10
2022/09/19 09:42:38;;;;;;;1.60;1.00;;;22.50;44.70;;;;;;5033479;28;20514;-10
2022/09/19 09:45:22;;;;;;;1.88;1.15;;;22.50;44.80;;;;;;5050866;28;20517;-10
2022/09/19 09:48:05;;;;;;;;;;;22.50;44.70;;;;;;5033522;28;20053;-10
2022/09/19 09:50:39;;;;;;;1.73;0.90;;;22.50;44.70;;;;;;5033247;28;19974;-10
2022/09/19 09:53:20;;;;;;;3.40;1.20;;;22.50;44.70;;;;;;5049540;28;20588;-10
2022/09/19 09:56:17;;;;;;;1.60;1.10;;;22.50;44.70;;;;;;5049650;28;20060;-10
2022/09/19 09:58:59;;;;;;;1.60;1.00;;;22.40;44.80;;;;;;5033274;28;20045;-10
2022/09/19 10:04:45;;;;;;;1.85;1.20;;;22.40;44.80;;;;;;5049869;28;20037;-10
2022/09/19 10:07:58;;;;;;;3.88;1.27;;;22.40;45.00;;;;;;5032456;28;20064;-10
2022/09/19 10:10:26;;;;;;;1.42;1.00;;;22.40;45.10;;;;;;5032812;28;20054;-10
2022/09/19 10:13:05;;;;;;;2.17;1.20;;;22.50;45.20;;;;;;5032529;28;20049;-10
2022/09/19 10:15:39;;;;;;;2.65;1.00;;;22.50;45.20;;;;;;5032495;28;20478;-10
2022/09/19 10:18:15;;;;;;;4.55;0.80;;;22.60;45.20;;;;;;5031500;28;20037;-10
2022/09/19 10:21:01;;;;;;;1.80;0.90;;;22.60;45.30;;;;;;5032653;28;20049;-10
2022/09/19 10:23:32;;;;;;;2.25;1.25;;;22.60;45.20;;;;;;5049661;28;20049;-10
2022/09/19 10:26:15;;;;;;;1.65;1.00;;;22.60;45.70;;;;;;5032710;28;20049;-10
2022/09/19 10:28:53;;;;;;;2.05;1.10;;;22.60;45.20;;;;;;5031820;28;20053;-10
2022/09/19 10:31:49;;;;;;;4.03;1.10;;;22.60;45.00;;;;;;5032541;28;20041;-10
2022/09/19 10:34:30;;;;;;;2.58;1.13;;;22.60;45.10;;;;;;5050525;28;20057;-10
2022/09/19 10:37:08;;;;;;;3.58;1.10;;;22.60;45.10;;;;;;5032379;28;20049;-11
2022/09/19 10:39:44;;;;;;;3.08;0.93;;;22.60;45.20;;;;;;5032370;28;20085;-10
2022/09/19 10:42:30;;;;;;;2.30;1.33;;;22.60;45.30;;;;;;5031613;28;20506;-10
2022/09/19 10:45:01;;;;;;;3.05;1.00;;;22.60;45.40;;;;;;5032542;28;20060;-10
2022/09/19 10:47:28;;;;;;;1.95;1.10;;;22.60;45.30;;;;;;5031373;28;20049;-10
2022/09/19 10:50:17;;;;;;;1.40;1.00;;;22.60;45.80;;;;;;5032321;28;20481;-10
2022/09/19 10:52:57;;;;;;;2.95;1.23;;;22.60;45.30;;;;;;5031971;28;20167;-10
2022/09/19 10:55:23;;;;;;;2.33;1.05;;;22.60;45.30;;;;;;5031505;28;20101;-10
2022/09/19 10:58:05;;;;;;;3.47;1.05;;;22.60;45.30;;;;;;5029980;28;20053;-10
2022/09/19 11:00:56;;;;;;;2.70;1.20;;;22.60;45.30;;;;;;5032542;28;20045;-10
2022/09/19 11:03:29;;;;;;;3.15;1.20;;;22.60;45.20;;;;;;5032162;28;20525;-10
2022/09/19 11:06:10;;;;;;;4.80;1.25;;;22.60;45.20;;;;;;5048793;28;20063;-11
2022/09/19 11:08:45;;;;;;;2.55;1.20;;;22.60;45.30;;;;;;5031976;28;20052;-10
2022/09/19 11:11:25;;;;;;;4.32;0.90;;;22.60;45.40;;;;;;5032164;28;20057;-10
2022/09/19 11:14:29;;;;;;;2.65;0.80;;;22.60;45.30;;;;;;5029982;28;20140;-10
2022/09/19 11:17:08;;;;;;;3.63;1.40;;;22.60;45.20;;;;;;5038381;28;20053;-10
2022/09/19 11:19:53;;;;;;;2.20;1.05;;;22.60;45.20;;;;;;5031295;28;20064;-10
2022/09/19 11:22:28;;;;;;;1.77;1.10;;;22.60;45.20;;;;;;5048468;28;20462;-10
2022/09/19 11:25:35;;;;;;;3.03;1.20;;;22.60;45.20;;;;;;5048351;28;20057;-10
2022/09/19 11:28:28;;;;;;;2.08;1.10;;;22.60;45.10;;;;;;5031515;28;20494;-11
2022/09/19 11:31:06;;;;;;;3.33;1.17;;;22.60;45.00;;;;;;5030487;28;20098;-10
2022/09/19 11:33:41;;;;;;;1.60;1.00;;;22.70;45.00;;;;;;5048299;28;20053;-10
2022/09/19 11:36:56;;;;;;;1.65;1.05;;;22.60;45.00;;;;;;5050205;28;20175;-10
2022/09/19 11:39:33;;;;;;;1.55;1.05;;;22.60;45.00;;;;;;5049871;28;20053;-10
2022/09/19 11:42:36;;;;;;;2.15;1.05;;;22.70;44.90;;;;;;5049884;28;20064;-10
2022/09/19 11:45:12;;;;;;;2.80;0.95;;;22.70;44.90;;;;;;5030452;28;20049;-10
2022/09/19 11:48:07;;;;;;;2.60;1.40;;;22.70;44.80;;;;;;5048457;28;20057;-10
2022/09/19 11:50:43;;;;;;;2.92;1.17;;;22.70;44.80;;;;;;5047080;28;20152;-10
2022/09/19 11:53:31;;;;;;;1.90;1.35;;;22.70;44.80;;;;;;5047754;28;20109;-12
2022/09/19 11:56:49;;;;;;;1.58;1.10;;;22.70;44.80;;;;;;5048191;28;20053;-12
2022/09/19 11:59:41;;;;;;;1.23;1.00;;;22.70;44.90;;;;;;5047724;28;20160;-10
2022/09/19 12:02:43;;;;;;;1.15;0.82;;;22.60;44.90;;;;;;5032713;28;20057;-9
2022/09/19 12:05:21;;;;;;;;;;;22.60;45.00;;;;;;5044440;28;20049;-10
2022/09/19 12:08:11;;;;;;;2.05;1.10;;;22.60;45.00;;;;;;5031074;28;20299;-9
2022/09/19 12:10:43;;;;;;;2.20;1.05;;;22.50;45.10;;;;;;5036542;28;20084;-9
2022/09/19 12:13:33;;;;;;;2.88;1.20;;;22.50;45.10;;;;;;5030642;28;20060;-9
2022/09/19 12:16:10;;;;;;;1.50;1.20;;;22.50;45.20;;;;;;5031588;28;20143;-10
2022/09/19 12:18:55;;;;;;;1.92;1.10;;;22.50;45.30;;;;;;5031407;28;20491;-10
2022/09/19 12:21:32;;;;;;;1.25;1.02;;;22.40;45.40;;;;;;5030843;28;20451;-10
2022/09/19 12:27:00;;;;;;;3.88;1.20;;;22.30;45.50;;;;;;5048027;28;20040;-9
2022/09/19 12:29:38;;;;;;;4.40;1.30;;;22.30;45.60;;;;;;5031514;28;20045;-10
2022/09/19 12:32:25;;;;;;;2.10;1.23;;;22.30;45.70;;;;;;5031498;28;20338;-10
2022/09/19 12:35:04;;;;;;;1.40;1.02;;;22.20;45.80;;;;;;5030990;28;20049;-10
2022/09/19 12:37:42;;;;;;;2.92;1.10;;;22.20;45.90;;;;;;5030823;28;20140;-12
2022/09/19 12:41:07;;;;;;;2.00;1.00;;;22.10;46.00;;;;;;5031210;28;20131;-10
2022/09/19 12:43:46;;;;;;;2.00;1.25;;;22.20;46.00;;;;;;5072371;28;20238;-10
2022/09/19 12:46:31;;;;;;;1.42;1.00;;;22.20;46.00;;;;;;5033447;28;20044;-10
2022/09/19 12:49:04;;;;;;;4.78;1.27;;;22.10;46.10;;;;;;5033685;28;20148;-10
2022/09/19 12:52:00;;;;;;;3.72;1.20;;;22.10;46.00;;;;;;5033664;28;20109;-10
2022/09/19 12:54:58;;;;;;;2.17;1.35;;;22.20;46.00;;;;;;5051465;28;20064;-10
2022/09/19 12:57:35;;;;;;;1.42;1.10;;;22.20;46.00;;;;;;5057428;28;20053;-10
2022/09/19 13:00:01;;;;;;;2.33;1.20;;;22.20;46.00;;;;;;5051558;28;20053;-10
2022/09/19 13:02:32;;;;;;;1.92;0.98;;;22.20;45.90;;;;;;5051493;28;20585;-9
2022/09/19 13:05:10;;;;;;;3.88;1.17;;;22.20;45.90;;;;;;5051843;28;20144;-10
2022/09/19 13:07:57;;;;;;;1.90;1.10;;;22.20;45.80;;;;;;5051240;28;20100;-10
2022/09/19 13:10:38;;;;;;;3.67;1.67;;;22.20;45.90;;;;;;5051327;28;20057;-10
2022/09/19 13:13:18;;;;;;;2.38;1.20;;;22.20;45.90;;;;;;5051405;28;20053;-10
2022/09/19 13:16:13;;;;;;;2.50;1.10;;;22.20;45.90;;;;;;5051612;28;20407;-10
2022/09/19 13:24:05;;;;;;;1.70;0.90;;;22.10;46.00;;;;;;5051812;28;20056;-10
2022/09/19 13:26:36;;;;;;;1.65;1.20;;;22.10;46.00;;;;;;5120136;27;20051;-10
2022/09/19 13:29:28;;;;;;;3.08;1.27;;;22.10;46.00;;;;;;5032687;28;20068;-10
2022/09/19 13:31:56;;;;;;;1.95;1.17;;;22.00;46.10;;;;;;5051333;28;20430;-9
2022/09/19 13:34:59;;;;;;;3.50;1.40;;;22.10;46.10;;;;;;5051150;28;20055;-11
2022/09/19 13:37:32;;;;;;;2.30;1.10;;;22.00;46.10;;;;;;5051495;28;20139;-11
2022/09/19 13:40:05;;;;;;;2.10;1.17;;;22.00;46.20;;;;;;5051217;28;20053;-10
2022/09/19 13:42:54;;;;;;;2.17;1.27;;;22.00;46.20;;;;;;5051059;28;20510;-11
2022/09/19 13:45:27;;;;;;;1.27;1.02;;;22.00;46.20;;;;;;5050953;28;20061;-10
2022/09/19 13:47:58;;;;;;;1.88;1.02;;;22.00;46.20;;;;;;5051000;28;20048;-10
2022/09/19 13:50:32;;;;;;;1.80;1.00;;;22.00;46.20;;;;;;5051244;28;20104;-10
2022/09/19 13:53:02;;;;;;;4.90;1.40;;;22.00;46.20;;;;;;5050614;28;20498;-10
2022/09/19 13:55:38;;;;;;;2.10;1.30;;;22.00;46.10;;;;;;5050458;28;20053;-10
2022/09/19 13:58:15;;;;;;;1.75;0.93;;;22.10;46.20;;;;;;5050807;28;20515;-10
2022/09/19 14:00:44;;;;;;;2.03;1.20;;;22.10;46.20;;;;;;5050670;28;20148;-10